sensor_id;sensor_type;location;lat;lon;timestamp;temperature;humidity
14769;DHT22;7476;49.404;11.152;2023-04-21T00:01:31;7.10;99.90
14769;DHT22;7476;49.404;11.152;2023-04-21T00:03:58;7.00;99.90
14769;DHT22;7476;49.404;11.152;2023-04-21T00:06:25;6.90;99.90
14769;DHT22;7476;49.404;11.152;2023-04-21T00:08:52;6.90;99.90
14769;DHT22;7476;49.404;11.152;2023-04-21T00:11:19;6.90;99.90
14769;DHT22;7476;49.404;11.152;2023-04-21T00:13:47;6.80;99.90
14769;DHT22;7476;49.404;11.152;2023-04-21T00:16:15;6.70;99.90
14769;DHT22;7476;49.404;11.152;2023-04-21T00:18:41;6.70;99.90
14769;DHT22;7476;49.404;11.152;2023-04-21T00:21:08;6.50;99.90
14769;DHT22;7476;49.404;11.152;2023-04-21T00:23:35;6.30;99.90
14769;DHT22;7476;49.404;11.152;2023-04-21T00:26:01;6.00;99.90
14769;DHT22;7476;49.404;11.152;2023-04-21T00:28:28;5.90;99.90
14769;DHT22;7476;49.404;11.152;2023-04-21T00:30:55;6.00;99.90
14769;DHT22;7476;49.404;11.152;2023-04-21T00:33:23;6.00;99.90
14769;DHT22;7476;49.404;11.152;2023-04-21T00:35:50;5.90;99.90
14769;DHT22;7476;49.404;11.152;2023-04-21T00:38:18;5.80;99.90
14769;DHT22;7476;49.404;11.152;2023-04-21T00:40:45;5.60;99.90
14769;DHT22;7476;49.404;11.152;2023-04-21T00:43:12;5.40;99.90
14769;DHT22;7476;49.404;11.152;2023-04-21T00:45:38;5.50;99.90
14769;DHT22;7476;49.404;11.152;2023-04-21T00:48:05;5.40;99.90
14769;DHT22;7476;49.404;11.152;2023-04-21T00:50:33;5.40;99.90
14769;DHT22;7476;49.404;11.152;2023-04-21T00:53:00;5.40;99.90
14769;DHT22;7476;49.404;11.152;2023-04-21T00:55:27;5.40;99.90
14769;DHT22;7476;49.404;11.152;2023-04-21T00:57:54;5.40;99.90
14769;DHT22;7476;49.404;11.152;2023-04-21T01:00:21;5.20;99.90
14769;DHT22;7476;49.404;11.152;2023-04-21T01:02:48;5.30;99.90
14769;DHT22;7476;49.404;11.152;2023-04-21T01:05:15;5.30;99.90
14769;DHT22;7476;49.404;11.152;2023-04-21T01:07:44;5.20;99.90
14769;DHT22;7476;49.404;11.152;2023-04-21T01:10:10;5.00;99.90
14769;DHT22;7476;49.404;11.152;2023-04-21T01:12:44;4.90;99.90
14769;DHT22;7476;49.404;11.152;2023-04-21T01:15:11;4.80;99.90
14769;DHT22;7476;49.404;11.152;2023-04-21T01:17:38;4.80;99.90
14769;DHT22;7476;49.404;11.152;2023-04-21T01:20:08;4.80;99.90
14769;DHT22;7476;49.404;11.152;2023-04-21T01:22:38;4.80;99.90
14769;DHT22;7476;49.404;11.152;2023-04-21T01:25:05;4.80;99.90
14769;DHT22;7476;49.404;11.152;2023-04-21T01:27:32;4.70;99.90
14769;DHT22;7476;49.404;11.152;2023-04-21T01:29:59;4.70;99.90
14769;DHT22;7476;49.404;11.152;2023-04-21T01:32:27;4.60;99.90
14769;DHT22;7476;49.404;11.152;2023-04-21T01:34:55;4.60;99.90
14769;DHT22;7476;49.404;11.152;2023-04-21T01:37:23;4.50;99.90
14769;DHT22;7476;49.404;11.152;2023-04-21T01:39:53;4.50;99.90
14769;DHT22;7476;49.404;11.152;2023-04-21T01:42:22;4.50;99.90
14769;DHT22;7476;49.404;11.152;2023-04-21T01:44:49;4.70;99.90
14769;DHT22;7476;49.404;11.152;2023-04-21T01:47:18;4.70;99.90
14769;DHT22;7476;49.404;11.152;2023-04-21T01:49:45;4.60;99.90
14769;DHT22;7476;49.404;11.152;2023-04-21T01:52:14;4.50;99.90
14769;DHT22;7476;49.404;11.152;2023-04-21T01:54:41;4.30;99.90
14769;DHT22;7476;49.404;11.152;2023-04-21T01:57:09;4.20;99.90
14769;DHT22;7476;49.404;11.152;2023-04-21T01:59:36;4.20;99.90
14769;DHT22;7476;49.404;11.152;2023-04-21T02:02:02;4.20;99.90
14769;DHT22;7476;49.404;11.152;2023-04-21T02:04:29;4.20;99.90
14769;DHT22;7476;49.404;11.152;2023-04-21T02:06:56;4.20;99.90
14769;DHT22;7476;49.404;11.152;2023-04-21T02:09:23;4.10;99.90
14769;DHT22;7476;49.404;11.152;2023-04-21T02:11:49;4.00;99.90
14769;DHT22;7476;49.404;11.152;2023-04-21T02:14:17;3.90;99.90
14769;DHT22;7476;49.404;11.152;2023-04-21T02:16:44;3.70;99.90
14769;DHT22;7476;49.404;11.152;2023-04-21T02:19:11;3.60;99.90
14769;DHT22;7476;49.404;11.152;2023-04-21T02:21:37;3.70;99.90
14769;DHT22;7476;49.404;11.152;2023-04-21T02:24:04;3.60;99.90
14769;DHT22;7476;49.404;11.152;2023-04-21T02:26:31;3.70;99.90
14769;DHT22;7476;49.404;11.152;2023-04-21T02:28:58;3.50;99.90
14769;DHT22;7476;49.404;11.152;2023-04-21T02:31:26;3.60;99.90
14769;DHT22;7476;49.404;11.152;2023-04-21T02:33:53;3.50;99.90
14769;DHT22;7476;49.404;11.152;2023-04-21T02:36:20;3.50;99.90
14769;DHT22;7476;49.404;11.152;2023-04-21T02:38:46;3.40;99.90
14769;DHT22;7476;49.404;11.152;2023-04-21T02:41:13;3.20;99.90
14769;DHT22;7476;49.404;11.152;2023-04-21T02:43:40;3.20;99.90
14769;DHT22;7476;49.404;11.152;2023-04-21T02:46:07;3.20;99.90
14769;DHT22;7476;49.404;11.152;2023-04-21T02:48:35;3.30;99.90
14769;DHT22;7476;49.404;11.152;2023-04-21T02:51:02;3.30;99.90
14769;DHT22;7476;49.404;11.152;2023-04-21T02:53:29;3.30;99.90
14769;DHT22;7476;49.404;11.152;2023-04-21T02:55:56;3.30;99.90
14769;DHT22;7476;49.404;11.152;2023-04-21T02:58:23;3.30;99.90
14769;DHT22;7476;49.404;11.152;2023-04-21T03:00:50;3.40;99.90
14769;DHT22;7476;49.404;11.152;2023-04-21T03:03:16;3.50;99.90
14769;DHT22;7476;49.404;11.152;2023-04-21T03:05:44;3.60;99.90
14769;DHT22;7476;49.404;11.152;2023-04-21T03:08:11;3.40;99.90
14769;DHT22;7476;49.404;11.152;2023-04-21T03:10:38;3.40;99.90
14769;DHT22;7476;49.404;11.152;2023-04-21T03:13:04;3.50;99.90
14769;DHT22;7476;49.404;11.152;2023-04-21T03:15:31;3.50;99.90
14769;DHT22;7476;49.404;11.152;2023-04-21T03:17:58;3.40;99.90
14769;DHT22;7476;49.404;11.152;2023-04-21T03:20:24;3.30;99.90
14769;DHT22;7476;49.404;11.152;2023-04-21T03:22:53;3.20;99.90
14769;DHT22;7476;49.404;11.152;2023-04-21T03:25:20;3.20;99.90
14769;DHT22;7476;49.404;11.152;2023-04-21T03:27:47;3.20;99.90
14769;DHT22;7476;49.404;11.152;2023-04-21T03:30:13;3.40;99.90
14769;DHT22;7476;49.404;11.152;2023-04-21T03:32:40;3.60;99.90
14769;DHT22;7476;49.404;11.152;2023-04-21T03:35:07;3.80;99.90
14769;DHT22;7476;49.404;11.152;2023-04-21T03:37:33;3.80;99.90
14769;DHT22;7476;49.404;11.152;2023-04-21T03:40:02;3.80;99.90
14769;DHT22;7476;49.404;11.152;2023-04-21T03:42:30;3.80;99.90
14769;DHT22;7476;49.404;11.152;2023-04-21T03:45:00;3.70;99.90
14769;DHT22;7476;49.404;11.152;2023-04-21T03:47:27;3.70;99.90
14769;DHT22;7476;49.404;11.152;2023-04-21T03:49:54;3.60;99.90
14769;DHT22;7476;49.404;11.152;2023-04-21T03:52:21;3.60;99.90
14769;DHT22;7476;49.404;11.152;2023-04-21T03:54:48;3.60;99.90
14769;DHT22;7476;49.404;11.152;2023-04-21T03:57:16;3.50;99.90
14769;DHT22;7476;49.404;11.152;2023-04-21T03:59:43;3.20;99.90
14769;DHT22;7476;49.404;11.152;2023-04-21T04:02:09;3.10;99.90
14769;DHT22;7476;49.404;11.152;2023-04-21T04:04:36;3.10;99.90
14769;DHT22;7476;49.404;11.152;2023-04-21T04:07:03;2.70;99.90
14769;DHT22;7476;49.404;11.152;2023-04-21T04:09:31;2.60;99.90
14769;DHT22;7476;49.404;11.152;2023-04-21T04:11:58;2.40;99.90
14769;DHT22;7476;49.404;11.152;2023-04-21T04:14:27;2.40;99.90
14769;DHT22;7476;49.404;11.152;2023-04-21T04:16:53;2.40;99.90
14769;DHT22;7476;49.404;11.152;2023-04-21T04:19:20;2.40;99.90
14769;DHT22;7476;49.404;11.152;2023-04-21T04:21:47;2.30;99.90
14769;DHT22;7476;49.404;11.152;2023-04-21T04:24:13;2.30;99.90
14769;DHT22;7476;49.404;11.152;2023-04-21T04:26:40;2.40;99.90
14769;DHT22;7476;49.404;11.152;2023-04-21T04:29:07;2.50;99.90
14769;DHT22;7476;49.404;11.152;2023-04-21T04:31:36;2.50;99.90
14769;DHT22;7476;49.404;11.152;2023-04-21T04:34:03;2.70;99.90
14769;DHT22;7476;49.404;11.152;2023-04-21T04:36:29;2.90;99.90
14769;DHT22;7476;49.404;11.152;2023-04-21T04:38:57;2.80;99.90
14769;DHT22;7476;49.404;11.152;2023-04-21T04:41:24;2.60;99.90
14769;DHT22;7476;49.404;11.152;2023-04-21T04:43:51;2.50;99.90
14769;DHT22;7476;49.404;11.152;2023-04-21T04:46:18;2.60;99.90
14769;DHT22;7476;49.404;11.152;2023-04-21T04:48:46;2.70;99.90
14769;DHT22;7476;49.404;11.152;2023-04-21T04:51:13;2.80;99.90
14769;DHT22;7476;49.404;11.152;2023-04-21T04:53:39;2.90;99.90
14769;DHT22;7476;49.404;11.152;2023-04-21T04:56:06;3.00;99.90
14769;DHT22;7476;49.404;11.152;2023-04-21T04:58:33;3.10;99.90
14769;DHT22;7476;49.404;11.152;2023-04-21T05:01:10;3.10;99.90
14769;DHT22;7476;49.404;11.152;2023-04-21T05:03:37;3.00;99.90
14769;DHT22;7476;49.404;11.152;2023-04-21T05:06:05;2.90;99.90
14769;DHT22;7476;49.404;11.152;2023-04-21T05:08:32;3.00;99.90
14769;DHT22;7476;49.404;11.152;2023-04-21T05:10:58;3.00;99.90
14769;DHT22;7476;49.404;11.152;2023-04-21T05:13:27;3.00;99.90
14769;DHT22;7476;49.404;11.152;2023-04-21T05:15:56;3.10;99.90
14769;DHT22;7476;49.404;11.152;2023-04-21T05:18:23;3.20;99.90
14769;DHT22;7476;49.404;11.152;2023-04-21T05:20:50;3.40;99.90
14769;DHT22;7476;49.404;11.152;2023-04-21T05:23:18;3.70;99.90
14769;DHT22;7476;49.404;11.152;2023-04-21T05:25:45;4.10;99.90
14769;DHT22;7476;49.404;11.152;2023-04-21T05:28:17;4.30;99.90
14769;DHT22;7476;49.404;11.152;2023-04-21T05:30:44;4.50;99.90
14769;DHT22;7476;49.404;11.152;2023-04-21T05:33:11;4.90;99.90
14769;DHT22;7476;49.404;11.152;2023-04-21T05:35:38;5.60;99.90
14769;DHT22;7476;49.404;11.152;2023-04-21T05:38:05;6.20;99.90
14769;DHT22;7476;49.404;11.152;2023-04-21T05:40:33;6.40;99.90
14769;DHT22;7476;49.404;11.152;2023-04-21T05:43:00;7.30;99.90
14769;DHT22;7476;49.404;11.152;2023-04-21T05:45:26;8.10;99.90
14769;DHT22;7476;49.404;11.152;2023-04-21T05:47:53;9.20;99.90
14769;DHT22;7476;49.404;11.152;2023-04-21T05:50:20;10.00;99.90
14769;DHT22;7476;49.404;11.152;2023-04-21T05:52:47;10.40;99.90
14769;DHT22;7476;49.404;11.152;2023-04-21T05:55:13;10.40;99.90
14769;DHT22;7476;49.404;11.152;2023-04-21T05:57:41;10.30;99.90
14769;DHT22;7476;49.404;11.152;2023-04-21T06:00:09;10.30;99.90
14769;DHT22;7476;49.404;11.152;2023-04-21T06:02:36;10.00;99.90
14769;DHT22;7476;49.404;11.152;2023-04-21T06:05:03;9.60;99.90
14769;DHT22;7476;49.404;11.152;2023-04-21T06:07:30;9.40;99.90
14769;DHT22;7476;49.404;11.152;2023-04-21T06:09:56;9.20;99.90
14769;DHT22;7476;49.404;11.152;2023-04-21T06:12:23;9.10;99.90
14769;DHT22;7476;49.404;11.152;2023-04-21T06:14:51;9.10;99.90
14769;DHT22;7476;49.404;11.152;2023-04-21T06:17:21;9.10;99.90
14769;DHT22;7476;49.404;11.152;2023-04-21T06:19:48;9.10;99.90
14769;DHT22;7476;49.404;11.152;2023-04-21T06:22:17;9.20;99.90
14769;DHT22;7476;49.404;11.152;2023-04-21T06:24:44;9.50;99.90
14769;DHT22;7476;49.404;11.152;2023-04-21T06:27:11;9.60;99.90
14769;DHT22;7476;49.404;11.152;2023-04-21T06:29:38;9.80;99.90
14769;DHT22;7476;49.404;11.152;2023-04-21T06:32:06;9.90;99.90
14769;DHT22;7476;49.404;11.152;2023-04-21T06:34:32;10.30;99.90
14769;DHT22;7476;49.404;11.152;2023-04-21T06:36:59;10.50;99.90
14769;DHT22;7476;49.404;11.152;2023-04-21T06:39:27;10.90;99.90
14769;DHT22;7476;49.404;11.152;2023-04-21T06:41:54;12.20;99.90
14769;DHT22;7476;49.404;11.152;2023-04-21T06:44:22;13.60;99.90
14769;DHT22;7476;49.404;11.152;2023-04-21T06:46:49;13.90;99.90
14769;DHT22;7476;49.404;11.152;2023-04-21T06:49:17;13.50;99.90
14769;DHT22;7476;49.404;11.152;2023-04-21T06:51:43;13.20;99.90
14769;DHT22;7476;49.404;11.152;2023-04-21T06:54:10;13.30;99.90
14769;DHT22;7476;49.404;11.152;2023-04-21T06:56:37;12.00;99.90
14769;DHT22;7476;49.404;11.152;2023-04-21T06:59:03;11.70;99.90
14769;DHT22;7476;49.404;11.152;2023-04-21T07:01:30;11.90;99.90
14769;DHT22;7476;49.404;11.152;2023-04-21T07:03:57;12.70;99.90
14769;DHT22;7476;49.404;11.152;2023-04-21T07:06:25;13.80;99.90
14769;DHT22;7476;49.404;11.152;2023-04-21T07:08:52;15.20;99.90
14769;DHT22;7476;49.404;11.152;2023-04-21T07:11:19;16.10;99.90
14769;DHT22;7476;49.404;11.152;2023-04-21T07:13:45;17.20;99.90
14769;DHT22;7476;49.404;11.152;2023-04-21T07:16:12;17.70;99.90
14769;DHT22;7476;49.404;11.152;2023-04-21T07:18:39;17.00;99.90
14769;DHT22;7476;49.404;11.152;2023-04-21T07:21:06;16.90;99.90
14769;DHT22;7476;49.404;11.152;2023-04-21T07:23:34;18.60;99.90
14769;DHT22;7476;49.404;11.152;2023-04-21T07:26:01;19.40;99.90
14769;DHT22;7476;49.404;11.152;2023-04-21T07:28:28;18.80;99.90
14769;DHT22;7476;49.404;11.152;2023-04-21T07:30:54;19.30;99.90
14769;DHT22;7476;49.404;11.152;2023-04-21T07:33:21;19.10;99.90
14769;DHT22;7476;49.404;11.152;2023-04-21T07:35:48;18.80;99.90
14769;DHT22;7476;49.404;11.152;2023-04-21T07:38:14;17.60;99.90
14769;DHT22;7476;49.404;11.152;2023-04-21T07:40:42;16.80;99.90
14769;DHT22;7476;49.404;11.152;2023-04-21T07:43:09;16.90;99.90
14769;DHT22;7476;49.404;11.152;2023-04-21T07:45:36;16.90;99.90
14769;DHT22;7476;49.404;11.152;2023-04-21T07:48:03;18.00;99.90
14769;DHT22;7476;49.404;11.152;2023-04-21T07:50:30;17.50;99.90
14769;DHT22;7476;49.404;11.152;2023-04-21T07:52:57;17.30;99.90
14769;DHT22;7476;49.404;11.152;2023-04-21T07:55:24;17.20;99.90
14769;DHT22;7476;49.404;11.152;2023-04-21T07:57:52;17.20;99.90
14769;DHT22;7476;49.404;11.152;2023-04-21T08:00:19;16.40;99.90
14769;DHT22;7476;49.404;11.152;2023-04-21T08:02:46;16.30;99.90
14769;DHT22;7476;49.404;11.152;2023-04-21T08:05:13;16.60;99.90
14769;DHT22;7476;49.404;11.152;2023-04-21T08:07:40;16.60;99.90
14769;DHT22;7476;49.404;11.152;2023-04-21T08:10:08;17.00;99.90
14769;DHT22;7476;49.404;11.152;2023-04-21T08:12:35;16.80;99.90
14769;DHT22;7476;49.404;11.152;2023-04-21T08:15:04;17.20;99.90
14769;DHT22;7476;49.404;11.152;2023-04-21T08:17:32;16.70;99.90
14769;DHT22;7476;49.404;11.152;2023-04-21T08:19:59;16.70;99.90
14769;DHT22;7476;49.404;11.152;2023-04-21T08:22:26;16.80;99.90
14769;DHT22;7476;49.404;11.152;2023-04-21T08:24:53;16.90;99.90
14769;DHT22;7476;49.404;11.152;2023-04-21T08:27:20;17.10;99.90
14769;DHT22;7476;49.404;11.152;2023-04-21T08:29:48;16.50;99.90
14769;DHT22;7476;49.404;11.152;2023-04-21T08:32:16;16.60;99.90
14769;DHT22;7476;49.404;11.152;2023-04-21T08:34:47;16.20;99.90
14769;DHT22;7476;49.404;11.152;2023-04-21T08:37:16;16.50;99.90
14769;DHT22;7476;49.404;11.152;2023-04-21T08:39:43;16.20;99.90
14769;DHT22;7476;49.404;11.152;2023-04-21T08:42:10;15.70;99.90
14769;DHT22;7476;49.404;11.152;2023-04-21T08:44:37;15.80;99.90
14769;DHT22;7476;49.404;11.152;2023-04-21T08:47:09;16.20;99.90
14769;DHT22;7476;49.404;11.152;2023-04-21T08:49:38;16.20;99.90
14769;DHT22;7476;49.404;11.152;2023-04-21T08:52:05;16.30;99.90
14769;DHT22;7476;49.404;11.152;2023-04-21T08:54:32;16.10;99.90
14769;DHT22;7476;49.404;11.152;2023-04-21T08:57:00;16.30;99.90
14769;DHT22;7476;49.404;11.152;2023-04-21T08:59:27;16.60;99.90
14769;DHT22;7476;49.404;11.152;2023-04-21T09:02:10;16.70;99.90
14769;DHT22;7476;49.404;11.152;2023-04-21T09:04:41;17.20;99.90
14769;DHT22;7476;49.404;11.152;2023-04-21T09:07:09;17.20;99.90
14769;DHT22;7476;49.404;11.152;2023-04-21T09:09:51;16.90;99.90
14769;DHT22;7476;49.404;11.152;2023-04-21T09:12:18;18.10;99.90
14769;DHT22;7476;49.404;11.152;2023-04-21T09:14:45;18.70;99.90
14769;DHT22;7476;49.404;11.152;2023-04-21T09:17:13;19.00;99.90
14769;DHT22;7476;49.404;11.152;2023-04-21T09:19:42;19.10;99.90
14769;DHT22;7476;49.404;11.152;2023-04-21T09:22:13;19.10;99.90
14769;DHT22;7476;49.404;11.152;2023-04-21T09:24:44;19.30;99.90
14769;DHT22;7476;49.404;11.152;2023-04-21T09:27:11;19.40;99.90
14769;DHT22;7476;49.404;11.152;2023-04-21T09:29:38;20.10;99.90
14769;DHT22;7476;49.404;11.152;2023-04-21T09:32:11;20.40;99.90
14769;DHT22;7476;49.404;11.152;2023-04-21T09:34:43;20.30;99.90
14769;DHT22;7476;49.404;11.152;2023-04-21T09:37:11;20.50;99.90
14769;DHT22;7476;49.404;11.152;2023-04-21T09:39:38;20.90;99.90
14769;DHT22;7476;49.404;11.152;2023-04-21T09:42:04;20.70;99.90
14769;DHT22;7476;49.404;11.152;2023-04-21T09:44:32;19.90;99.90
14769;DHT22;7476;49.404;11.152;2023-04-21T09:46:59;19.30;99.90
14769;DHT22;7476;49.404;11.152;2023-04-21T09:49:28;19.20;99.90
14769;DHT22;7476;49.404;11.152;2023-04-21T09:51:58;19.30;99.90
14769;DHT22;7476;49.404;11.152;2023-04-21T09:54:29;19.00;99.90
14769;DHT22;7476;49.404;11.152;2023-04-21T09:56:58;19.90;99.90
14769;DHT22;7476;49.404;11.152;2023-04-21T09:59:29;21.10;99.90
14769;DHT22;7476;49.404;11.152;2023-04-21T10:01:58;20.50;99.90
14769;DHT22;7476;49.404;11.152;2023-04-21T10:04:27;20.60;99.90
14769;DHT22;7476;49.404;11.152;2023-04-21T10:06:54;21.30;99.90
14769;DHT22;7476;49.404;11.152;2023-04-21T10:09:24;21.80;99.90
14769;DHT22;7476;49.404;11.152;2023-04-21T10:11:53;22.70;99.90
14769;DHT22;7476;49.404;11.152;2023-04-21T10:14:20;23.20;99.90
14769;DHT22;7476;49.404;11.152;2023-04-21T10:16:55;22.30;99.90
14769;DHT22;7476;49.404;11.152;2023-04-21T10:19:23;22.10;99.90
14769;DHT22;7476;49.404;11.152;2023-04-21T10:21:50;21.40;99.90
14769;DHT22;7476;49.404;11.152;2023-04-21T10:24:17;22.20;99.90
14769;DHT22;7476;49.404;11.152;2023-04-21T10:26:45;21.00;99.90
14769;DHT22;7476;49.404;11.152;2023-04-21T10:29:12;20.20;99.90
14769;DHT22;7476;49.404;11.152;2023-04-21T10:31:50;20.60;99.90
14769;DHT22;7476;49.404;11.152;2023-04-21T10:34:21;21.30;99.90
14769;DHT22;7476;49.404;11.152;2023-04-21T10:37:13;21.70;99.90
14769;DHT22;7476;49.404;11.152;2023-04-21T10:39:43;22.20;99.90
14769;DHT22;7476;49.404;11.152;2023-04-21T10:42:21;22.00;99.90
14769;DHT22;7476;49.404;11.152;2023-04-21T10:44:59;22.00;99.90
14769;DHT22;7476;49.404;11.152;2023-04-21T10:47:28;21.50;99.90
14769;DHT22;7476;49.404;11.152;2023-04-21T10:49:56;21.40;99.90
14769;DHT22;7476;49.404;11.152;2023-04-21T10:52:30;21.10;99.90
14769;DHT22;7476;49.404;11.152;2023-04-21T10:55:07;20.80;99.90
14769;DHT22;7476;49.404;11.152;2023-04-21T10:57:36;21.10;99.90
14769;DHT22;7476;49.404;11.152;2023-04-21T11:00:05;20.60;99.90
14769;DHT22;7476;49.404;11.152;2023-04-21T11:02:33;21.00;99.90
14769;DHT22;7476;49.404;11.152;2023-04-21T11:05:01;21.30;99.90
14769;DHT22;7476;49.404;11.152;2023-04-21T11:07:28;20.80;99.90
14769;DHT22;7476;49.404;11.152;2023-04-21T11:09:56;21.50;99.90
14769;DHT22;7476;49.404;11.152;2023-04-21T11:12:26;21.60;99.90
14769;DHT22;7476;49.404;11.152;2023-04-21T11:14:55;21.50;99.90
14769;DHT22;7476;49.404;11.152;2023-04-21T11:17:22;21.00;99.90
14769;DHT22;7476;49.404;11.152;2023-04-21T11:19:50;21.40;99.90
14769;DHT22;7476;49.404;11.152;2023-04-21T11:22:17;22.40;99.60
14769;DHT22;7476;49.404;11.152;2023-04-21T11:24:45;22.10;98.60
14769;DHT22;7476;49.404;11.152;2023-04-21T11:27:12;21.70;99.70
14769;DHT22;7476;49.404;11.152;2023-04-21T11:29:39;22.20;99.20
14769;DHT22;7476;49.404;11.152;2023-04-21T11:32:08;23.50;97.40
14769;DHT22;7476;49.404;11.152;2023-04-21T11:34:36;23.30;97.70
14769;DHT22;7476;49.404;11.152;2023-04-21T11:37:03;22.90;97.30
14769;DHT22;7476;49.404;11.152;2023-04-21T11:39:32;22.30;98.50
14769;DHT22;7476;49.404;11.152;2023-04-21T11:41:58;23.00;97.90
14769;DHT22;7476;49.404;11.152;2023-04-21T11:44:34;23.20;97.60
14769;DHT22;7476;49.404;11.152;2023-04-21T11:47:12;22.80;97.50
14769;DHT22;7476;49.404;11.152;2023-04-21T11:49:44;23.10;98.60
14769;DHT22;7476;49.404;11.152;2023-04-21T11:52:11;23.60;96.80
14769;DHT22;7476;49.404;11.152;2023-04-21T11:54:38;24.10;95.80
14769;DHT22;7476;49.404;11.152;2023-04-21T11:57:04;22.60;96.20
14769;DHT22;7476;49.404;11.152;2023-04-21T11:59:32;21.60;97.50
14769;DHT22;7476;49.404;11.152;2023-04-21T12:01:58;21.70;97.90
14769;DHT22;7476;49.404;11.152;2023-04-21T12:04:27;21.70;97.40
14769;DHT22;7476;49.404;11.152;2023-04-21T12:06:56;21.60;98.20
14769;DHT22;7476;49.404;11.152;2023-04-21T12:09:23;23.00;96.20
14769;DHT22;7476;49.404;11.152;2023-04-21T12:11:51;24.60;94.20
14769;DHT22;7476;49.404;11.152;2023-04-21T12:14:19;24.00;95.00
14769;DHT22;7476;49.404;11.152;2023-04-21T12:16:48;23.00;95.30
14769;DHT22;7476;49.404;11.152;2023-04-21T12:19:21;23.10;95.20
14769;DHT22;7476;49.404;11.152;2023-04-21T12:21:53;23.00;95.70
14769;DHT22;7476;49.404;11.152;2023-04-21T12:24:20;23.00;94.70
14769;DHT22;7476;49.404;11.152;2023-04-21T12:26:47;23.10;95.40
14769;DHT22;7476;49.404;11.152;2023-04-21T12:29:14;23.50;94.60
14769;DHT22;7476;49.404;11.152;2023-04-21T12:31:40;23.90;94.80
14769;DHT22;7476;49.404;11.152;2023-04-21T12:34:07;23.70;94.30
14769;DHT22;7476;49.404;11.152;2023-04-21T12:36:34;25.20;92.80
14769;DHT22;7476;49.404;11.152;2023-04-21T12:39:02;24.40;92.60
14769;DHT22;7476;49.404;11.152;2023-04-21T12:41:30;24.50;92.90
14769;DHT22;7476;49.404;11.152;2023-04-21T12:43:58;23.90;93.00
14769;DHT22;7476;49.404;11.152;2023-04-21T12:46:26;24.30;92.60
14769;DHT22;7476;49.404;11.152;2023-04-21T12:48:53;24.80;91.50
14769;DHT22;7476;49.404;11.152;2023-04-21T12:51:20;24.50;90.90
14769;DHT22;7476;49.404;11.152;2023-04-21T12:53:47;23.80;90.60
14769;DHT22;7476;49.404;11.152;2023-04-21T12:56:15;24.80;90.50
14769;DHT22;7476;49.404;11.152;2023-04-21T12:58:43;25.60;87.90
14769;DHT22;7476;49.404;11.152;2023-04-21T13:01:09;27.00;86.20
14769;DHT22;7476;49.404;11.152;2023-04-21T13:03:39;26.70;83.30
14769;DHT22;7476;49.404;11.152;2023-04-21T13:06:06;25.40;89.20
14769;DHT22;7476;49.404;11.152;2023-04-21T13:08:33;25.20;89.90
14769;DHT22;7476;49.404;11.152;2023-04-21T13:11:00;24.70;90.80
14769;DHT22;7476;49.404;11.152;2023-04-21T13:13:28;25.20;89.50
14769;DHT22;7476;49.404;11.152;2023-04-21T13:15:55;26.00;85.30
14769;DHT22;7476;49.404;11.152;2023-04-21T13:18:22;27.90;81.80
14769;DHT22;7476;49.404;11.152;2023-04-21T13:20:48;28.30;78.60
14769;DHT22;7476;49.404;11.152;2023-04-21T13:23:15;28.00;79.30
14769;DHT22;7476;49.404;11.152;2023-04-21T13:25:42;26.30;81.60
14769;DHT22;7476;49.404;11.152;2023-04-21T13:28:10;25.30;85.80
14769;DHT22;7476;49.404;11.152;2023-04-21T13:30:39;23.70;87.70
14769;DHT22;7476;49.404;11.152;2023-04-21T13:33:06;23.80;89.70
14769;DHT22;7476;49.404;11.152;2023-04-21T13:35:33;25.10;85.20
14769;DHT22;7476;49.404;11.152;2023-04-21T13:37:59;25.60;86.10
14769;DHT22;7476;49.404;11.152;2023-04-21T13:40:26;26.80;79.30
14769;DHT22;7476;49.404;11.152;2023-04-21T13:42:53;28.30;77.60
14769;DHT22;7476;49.404;11.152;2023-04-21T13:45:20;29.80;72.70
14769;DHT22;7476;49.404;11.152;2023-04-21T13:47:48;29.40;70.90
14769;DHT22;7476;49.404;11.152;2023-04-21T13:50:16;28.70;72.70
14769;DHT22;7476;49.404;11.152;2023-04-21T13:52:42;28.00;72.30
14769;DHT22;7476;49.404;11.152;2023-04-21T13:55:09;26.40;73.40
14769;DHT22;7476;49.404;11.152;2023-04-21T13:57:37;26.10;74.40
14769;DHT22;7476;49.404;11.152;2023-04-21T14:00:05;26.20;75.90
14769;DHT22;7476;49.404;11.152;2023-04-21T14:02:33;27.90;71.80
14769;DHT22;7476;49.404;11.152;2023-04-21T14:05:02;26.60;74.30
14769;DHT22;7476;49.404;11.152;2023-04-21T14:07:29;27.60;73.60
14769;DHT22;7476;49.404;11.152;2023-04-21T14:09:55;25.90;75.20
14769;DHT22;7476;49.404;11.152;2023-04-21T14:12:22;26.20;74.10
14769;DHT22;7476;49.404;11.152;2023-04-21T14:14:50;27.10;72.70
14769;DHT22;7476;49.404;11.152;2023-04-21T14:17:17;28.00;70.70
14769;DHT22;7476;49.404;11.152;2023-04-21T14:19:44;29.00;69.70
14769;DHT22;7476;49.404;11.152;2023-04-21T14:22:13;28.70;66.20
14769;DHT22;7476;49.404;11.152;2023-04-21T14:24:39;29.20;65.20
14769;DHT22;7476;49.404;11.152;2023-04-21T14:27:06;29.30;63.50
14769;DHT22;7476;49.404;11.152;2023-04-21T14:29:33;28.00;64.10
14769;DHT22;7476;49.404;11.152;2023-04-21T14:31:59;28.30;65.40
14769;DHT22;7476;49.404;11.152;2023-04-21T14:34:26;28.20;64.80
14769;DHT22;7476;49.404;11.152;2023-04-21T14:36:53;28.20;62.90
14769;DHT22;7476;49.404;11.152;2023-04-21T14:39:21;27.60;64.80
14769;DHT22;7476;49.404;11.152;2023-04-21T14:41:48;28.10;63.50
14769;DHT22;7476;49.404;11.152;2023-04-21T14:44:14;28.20;61.60
14769;DHT22;7476;49.404;11.152;2023-04-21T14:46:43;28.30;61.60
14769;DHT22;7476;49.404;11.152;2023-04-21T14:49:10;28.90;61.10
14769;DHT22;7476;49.404;11.152;2023-04-21T14:51:37;29.30;60.30
14769;DHT22;7476;49.404;11.152;2023-04-21T14:54:06;27.40;63.30
14769;DHT22;7476;49.404;11.152;2023-04-21T14:56:34;26.70;65.00
14769;DHT22;7476;49.404;11.152;2023-04-21T14:59:01;28.50;63.20
14769;DHT22;7476;49.404;11.152;2023-04-21T15:01:28;27.90;63.20
14769;DHT22;7476;49.404;11.152;2023-04-21T15:03:54;26.60;65.60
14769;DHT22;7476;49.404;11.152;2023-04-21T15:06:21;27.70;63.40
14769;DHT22;7476;49.404;11.152;2023-04-21T15:08:48;28.10;63.70
14769;DHT22;7476;49.404;11.152;2023-04-21T15:11:15;29.20;59.70
14769;DHT22;7476;49.404;11.152;2023-04-21T15:13:43;29.50;59.90
14769;DHT22;7476;49.404;11.152;2023-04-21T15:16:10;29.40;59.40
14769;DHT22;7476;49.404;11.152;2023-04-21T15:18:37;28.40;60.90
14769;DHT22;7476;49.404;11.152;2023-04-21T15:21:03;29.60;59.80
14769;DHT22;7476;49.404;11.152;2023-04-21T15:23:30;30.00;58.90
14769;DHT22;7476;49.404;11.152;2023-04-21T15:25:58;28.00;60.60
14769;DHT22;7476;49.404;11.152;2023-04-21T15:28:24;27.30;60.90
14769;DHT22;7476;49.404;11.152;2023-04-21T15:30:52;25.60;64.80
14769;DHT22;7476;49.404;11.152;2023-04-21T15:33:19;26.10;65.40
14769;DHT22;7476;49.404;11.152;2023-04-21T15:35:46;27.30;62.70
14769;DHT22;7476;49.404;11.152;2023-04-21T15:38:13;28.20;60.50
14769;DHT22;7476;49.404;11.152;2023-04-21T15:40:39;27.30;62.30